Terminal Aerodrome Forecast
Issued by NWS

Current Version | Previous Version | Text Only | Print | Product List | Glossary On
Versions: 1 2 3 4 5 6 7 8 9 10 11 12 13 14 15 16 17 18 19
000
FTUS44 KBMX 071744 AAC
TAFEET
TAF AMD
KEET 071744Z 0718/0818 24009G17KT 2SM -RA BR SCT035 BKN060
     FM071815 20006KT P6SM SCT035 BKN070
     FM080100 00000KT P6SM SCT250
     FM081000 VRB03KT 5SM BR SCT250
     FM081400 25006KT P6SM SCT030 SCT250=

USA.gov is the U.S. government's official web portal to all federal, state and local government web resources and services.